createdAt,value
2022-09-18T00:01:13.950Z,3.83
2022-09-18T00:03:41.430Z,3.72
2022-09-18T00:06:13.453Z,3.72
2022-09-18T00:08:40.695Z,3.13
2022-09-18T00:11:09.047Z,3.28
2022-09-18T00:13:36.769Z,3.10
2022-09-18T00:16:04.800Z,2.80
2022-09-18T00:18:31.583Z,3.28
2022-09-18T00:21:19.573Z,3.28
2022-09-18T00:23:46.861Z,3.38
2022-09-18T00:26:16.145Z,4.00
2022-09-18T00:28:42.897Z,3.50
2022-09-18T00:31:16.102Z,3.40
2022-09-18T00:33:43.419Z,3.40
2022-09-18T00:36:12.724Z,3.47
2022-09-18T00:38:39.758Z,3.70
2022-09-18T00:41:09.836Z,3.97
2022-09-18T00:43:37.370Z,3.80
2022-09-18T00:46:31.629Z,3.50
2022-09-18T00:49:13.463Z,3.90
2022-09-18T00:51:40.987Z,3.30
2022-09-18T00:54:21.997Z,3.42
2022-09-18T00:56:50.711Z,3.30
2022-09-18T00:59:22.544Z,2.95
2022-09-18T01:01:49.324Z,2.58
2022-09-18T01:04:16.025Z,2.50
2022-09-18T01:07:01.476Z,3.03
2022-09-18T01:09:57.075Z,2.80
2022-09-18T01:15:11.252Z,3.05
2022-09-18T01:17:52.839Z,3.65
2022-09-18T01:20:38.776Z,4.18
2022-09-18T01:23:14.995Z,3.72
2022-09-18T01:26:04.523Z,3.70
2022-09-18T01:28:38.285Z,3.35
2022-09-18T01:31:10.545Z,3.47
2022-09-18T01:33:51.453Z,3.10
2022-09-18T01:36:21.515Z,3.35
2022-09-18T01:38:52.851Z,3.42
2022-09-18T01:41:24.717Z,3.53
2022-09-18T01:43:56.629Z,3.13
2022-09-18T01:46:25.418Z,3.03
2022-09-18T01:49:03.456Z,3.10
2022-09-18T01:51:44.559Z,3.33
2022-09-18T01:54:17.932Z,3.08
2022-09-18T01:56:58.212Z,3.60
2022-09-18T01:59:33.918Z,3.08
2022-09-18T02:02:01.957Z,3.67
2022-09-18T02:04:32.218Z,3.63
2022-09-18T02:07:14.280Z,3.42
2022-09-18T02:09:42.012Z,4.40
2022-09-18T02:12:11.758Z,3.97
2022-09-18T02:14:42.063Z,4.00
2022-09-18T02:17:17.141Z,4.05
2022-09-18T02:19:54.354Z,4.35
2022-09-18T02:22:22.239Z,4.40
2022-09-18T02:24:51.049Z,4.95
2022-09-18T02:27:17.991Z,4.97
2022-09-18T02:29:46.257Z,5.07
2022-09-18T02:32:13.810Z,5.53
2022-09-18T02:34:42.112Z,4.85
2022-09-18T02:37:18.312Z,4.82
2022-09-18T02:40:02.008Z,5.10
2022-09-18T02:42:54.133Z,5.10
2022-09-18T02:45:26.674Z,5.43
2022-09-18T02:48:17.736Z,5.55
2022-09-18T02:51:04.516Z,6.00
2022-09-18T02:53:41.982Z,6.43
2022-09-18T02:56:25.772Z,6.60
2022-09-18T02:58:59.305Z,6.10
2022-09-18T03:01:27.057Z,5.82
2022-09-18T03:03:53.844Z,6.22
2022-09-18T03:06:20.829Z,5.88
2022-09-18T03:08:47.471Z,5.78
2022-09-18T03:11:14.180Z,5.50
2022-09-18T03:13:41.000Z,5.05
2022-09-18T03:16:07.802Z,5.70
2022-09-18T03:18:34.439Z,6.13
2022-09-18T03:21:01.136Z,5.40
2022-09-18T03:23:28.091Z,4.82
2022-09-18T03:25:54.766Z,5.32
2022-09-18T03:28:21.459Z,5.65
2022-09-18T03:30:49.935Z,5.75
2022-09-18T03:33:16.875Z,5.95
2022-09-18T03:35:44.109Z,5.40
2022-09-18T03:38:10.869Z,5.50
2022-09-18T03:40:37.692Z,6.22
2022-09-18T03:43:04.639Z,6.43
2022-09-18T03:45:31.388Z,6.13
2022-09-18T03:47:58.375Z,6.22
2022-09-18T03:50:25.147Z,6.47
2022-09-18T03:52:51.999Z,6.18
2022-09-18T03:55:18.646Z,6.55
2022-09-18T03:57:48.739Z,7.13
2022-09-18T04:00:16.226Z,6.70
2022-09-18T04:02:43.170Z,6.60
2022-09-18T04:05:10.086Z,6.03
2022-09-18T04:07:36.827Z,5.70
2022-09-18T04:10:04.116Z,6.35
2022-09-18T04:12:30.772Z,6.18
2022-09-18T04:14:57.408Z,6.35
2022-09-18T04:17:24.084Z,6.25
2022-09-18T04:19:53.557Z,6.32
2022-09-18T04:22:21.748Z,6.20
2022-09-18T04:24:50.268Z,7.03
2022-09-18T04:27:17.123Z,7.40
2022-09-18T04:29:43.786Z,7.63
2022-09-18T04:32:10.454Z,7.10
2022-09-18T04:34:37.229Z,7.28
2022-09-18T04:37:09.415Z,6.47
2022-09-18T04:39:37.034Z,5.90
2022-09-18T04:42:04.199Z,6.03
2022-09-18T04:44:30.948Z,6.05
2022-09-18T04:46:57.656Z,7.32
2022-09-18T04:49:24.372Z,6.63
2022-09-18T04:51:51.058Z,6.80
2022-09-18T04:54:17.975Z,6.72
2022-09-18T04:56:44.651Z,6.47
2022-09-18T04:59:11.365Z,7.68
2022-09-18T05:01:38.145Z,7.78
2022-09-18T05:04:04.898Z,7.53
2022-09-18T05:06:31.619Z,8.07
2022-09-18T05:08:58.659Z,7.15
2022-09-18T05:11:25.344Z,6.95
2022-09-18T05:13:56.502Z,7.07
2022-09-18T05:16:24.178Z,7.35
2022-09-18T05:18:52.290Z,6.70
2022-09-18T05:21:19.571Z,7.43
2022-09-18T05:23:46.957Z,6.82
2022-09-18T05:26:14.174Z,7.25
2022-09-18T05:28:41.059Z,7.72
2022-09-18T05:31:08.400Z,7.20
2022-09-18T05:33:36.299Z,7.10
2022-09-18T05:36:05.545Z,7.28
2022-09-18T05:38:32.438Z,6.80
2022-09-18T05:41:00.891Z,7.50
2022-09-18T05:43:28.050Z,7.20
2022-09-18T05:45:54.883Z,7.55
2022-09-18T05:48:22.080Z,6.65
2022-09-18T05:50:50.919Z,6.15
2022-09-18T05:53:19.593Z,5.93
2022-09-18T05:55:46.438Z,5.13
2022-09-18T05:58:15.139Z,5.28
2022-09-18T06:00:42.065Z,5.45
2022-09-18T06:03:13.879Z,4.97
2022-09-18T06:05:41.603Z,4.93
2022-09-18T06:08:11.006Z,5.10
2022-09-18T06:10:39.463Z,4.90
2022-09-18T06:13:17.303Z,5.15
2022-09-18T06:15:48.841Z,4.97
2022-09-18T06:18:15.955Z,4.75
2022-09-18T06:20:43.399Z,4.95
2022-09-18T06:23:10.147Z,4.10
2022-09-18T06:25:36.930Z,4.55
2022-09-18T06:28:03.770Z,5.07
2022-09-18T06:30:31.970Z,5.38
2022-09-18T06:33:06.361Z,4.55
2022-09-18T06:35:33.855Z,4.40
2022-09-18T06:38:02.963Z,4.55
2022-09-18T06:40:31.056Z,4.28
2022-09-18T06:42:58.410Z,4.32
2022-09-18T06:45:25.917Z,4.25
2022-09-18T06:47:54.358Z,4.65
2022-09-18T06:50:24.817Z,3.83
2022-09-18T06:52:51.828Z,4.03
2022-09-18T06:55:18.984Z,3.50
2022-09-18T06:57:55.947Z,3.95
2022-09-18T07:00:23.361Z,3.88
2022-09-18T07:02:57.521Z,3.83
2022-09-18T07:05:26.734Z,3.80
2022-09-18T07:07:53.590Z,5.10
2022-09-18T07:10:21.023Z,5.32
2022-09-18T07:12:48.917Z,6.03
2022-09-18T07:15:20.044Z,4.57
2022-09-18T07:17:46.890Z,4.18
2022-09-18T07:20:15.004Z,4.72
2022-09-18T07:22:47.065Z,4.90
2022-09-18T07:25:14.256Z,5.00
2022-09-18T07:27:40.988Z,4.45
2022-09-18T07:30:08.139Z,4.38
2022-09-18T07:32:36.010Z,4.05
2022-09-18T07:35:02.908Z,4.05
2022-09-18T07:37:29.721Z,3.67
2022-09-18T07:39:56.609Z,3.20
2022-09-18T07:42:23.900Z,3.92
2022-09-18T07:44:50.608Z,3.83
2022-09-18T07:47:17.231Z,3.67
2022-09-18T07:49:43.923Z,3.70
2022-09-18T07:52:10.843Z,3.58
2022-09-18T07:54:37.475Z,3.58
2022-09-18T07:57:04.605Z,3.92
2022-09-18T07:59:31.438Z,4.25
2022-09-18T08:01:58.477Z,4.55
2022-09-18T08:04:25.285Z,4.50
2022-09-18T08:06:55.224Z,4.45
2022-09-18T08:09:22.408Z,4.07
2022-09-18T08:11:52.071Z,4.55
2022-09-18T08:14:18.822Z,3.70
2022-09-18T08:16:45.795Z,4.20
2022-09-18T08:19:12.976Z,3.55
2022-09-18T08:21:39.859Z,2.95
2022-09-18T08:24:06.596Z,3.30
2022-09-18T08:26:35.847Z,3.05
2022-09-18T08:29:02.559Z,2.92
2022-09-18T08:31:29.361Z,2.95
2022-09-18T08:33:56.134Z,2.58
2022-09-18T08:36:22.949Z,2.25
2022-09-18T08:38:53.304Z,2.20
2022-09-18T08:41:53.947Z,2.22
2022-09-18T08:44:27.865Z,2.25
2022-09-18T08:47:08.625Z,2.25
2022-09-18T08:49:51.965Z,2.95
2022-09-18T08:52:22.989Z,2.45
2022-09-18T08:55:12.803Z,2.38
2022-09-18T08:57:41.964Z,1.77
2022-09-18T09:00:12.937Z,2.40
2022-09-18T09:02:48.634Z,2.10
2022-09-18T09:05:19.075Z,2.10
2022-09-18T09:08:07.749Z,1.85
2022-09-18T09:10:49.097Z,1.83
2022-09-18T09:13:21.888Z,1.73
2022-09-18T09:15:57.227Z,2.22
2022-09-18T09:18:39.200Z,1.77
2022-09-18T09:21:21.613Z,1.73
2022-09-18T09:23:54.374Z,2.20
2022-09-18T09:26:25.383Z,1.48
2022-09-18T09:29:13.607Z,1.75
2022-09-18T09:31:46.157Z,1.60
2022-09-18T09:34:37.463Z,1.73
2022-09-18T09:37:08.638Z,1.58
2022-09-18T09:40:05.739Z,1.83
2022-09-18T09:42:47.431Z,1.48
2022-09-18T09:45:35.597Z,1.73
2022-09-18T09:48:22.981Z,1.38
2022-09-18T09:51:15.621Z,1.48
2022-09-18T09:53:42.340Z,1.10
2022-09-18T09:56:20.975Z,1.45
2022-09-18T09:59:23.706Z,1.35
2022-09-18T10:02:32.174Z,1.45
2022-09-18T10:05:22.199Z,1.10
2022-09-18T10:07:56.094Z,1.48
2022-09-18T10:10:59.633Z,1.30
2022-09-18T10:13:29.647Z,1.05
2022-09-18T10:16:08.715Z,1.27
2022-09-18T10:18:39.565Z,0.90
2022-09-18T10:21:12.320Z,1.45
2022-09-18T10:23:41.242Z,1.10
2022-09-18T10:26:13.304Z,1.10
2022-09-18T10:28:40.705Z,2.13
2022-09-18T10:31:12.175Z,0.80
2022-09-18T10:33:44.143Z,0.98
2022-09-18T10:36:35.293Z,1.05
2022-09-18T10:39:29.283Z,0.93
2022-09-18T10:42:04.309Z,1.85
2022-09-18T10:44:40.271Z,1.27
2022-09-18T10:47:09.892Z,1.20
2022-09-18T10:49:52.501Z,1.67
2022-09-18T10:52:39.167Z,1.25
2022-09-18T10:55:09.277Z,1.02
2022-09-18T10:57:37.502Z,1.20
2022-09-18T11:00:20.376Z,1.77
2022-09-18T11:02:54.906Z,1.20
2022-09-18T11:05:27.062Z,1.58
2022-09-18T11:07:55.719Z,1.20
2022-09-18T11:10:24.469Z,1.10
2022-09-18T11:13:00.215Z,1.30
2022-09-18T11:15:32.445Z,0.90
2022-09-18T11:18:02.414Z,1.20
2022-09-18T11:20:31.224Z,1.17
2022-09-18T11:23:28.777Z,0.93
2022-09-18T11:26:22.013Z,1.00
2022-09-18T11:29:06.626Z,1.33
2022-09-18T11:31:49.978Z,1.30
2022-09-18T11:34:24.621Z,1.08
2022-09-18T11:36:53.579Z,1.80
2022-09-18T11:39:30.202Z,1.60
2022-09-18T11:41:57.052Z,1.65
2022-09-18T11:44:28.933Z,1.15
2022-09-18T11:47:40.734Z,0.80
2022-09-18T11:50:20.386Z,0.73
2022-09-18T11:52:53.914Z,0.70
2022-09-18T11:55:38.522Z,0.70
2022-09-18T11:58:28.750Z,0.88
2022-09-18T12:01:14.733Z,1.00
2022-09-18T12:04:10.893Z,0.80
2022-09-18T12:06:56.466Z,0.80
2022-09-18T12:09:42.935Z,1.10
2022-09-18T12:12:24.019Z,1.13
2022-09-18T12:15:02.631Z,1.30
2022-09-18T12:17:52.736Z,2.00
2022-09-18T12:20:28.495Z,1.58
2022-09-18T12:22:57.183Z,0.60
2022-09-18T12:25:36.960Z,0.80
2022-09-18T12:28:18.583Z,0.80
2022-09-18T12:31:06.411Z,0.90
2022-09-18T12:33:54.710Z,1.10
2022-09-18T12:36:53.623Z,0.80
2022-09-18T12:39:45.927Z,0.60
2022-09-18T12:42:29.036Z,0.80
2022-09-18T12:45:20.409Z,0.68
2022-09-18T12:47:53.334Z,1.25
2022-09-18T12:50:45.678Z,0.75
2022-09-18T12:53:36.301Z,0.60
2022-09-18T12:56:18.835Z,0.73
2022-09-18T12:59:17.720Z,1.02
2022-09-18T13:01:50.956Z,0.80
2022-09-18T13:04:23.685Z,1.00
2022-09-18T13:07:07.330Z,0.90
2022-09-18T13:09:38.784Z,1.08
2022-09-18T13:12:21.405Z,0.88
2022-09-18T13:14:54.167Z,1.20
2022-09-18T13:17:25.660Z,1.08
2022-09-18T13:20:06.512Z,1.15
2022-09-18T13:22:37.585Z,0.77
2022-09-18T13:25:35.036Z,0.80
2022-09-18T13:28:04.001Z,0.90
2022-09-18T13:30:32.043Z,1.08
2022-09-18T13:32:59.563Z,0.90
2022-09-18T13:35:31.485Z,0.90
2022-09-18T13:38:08.618Z,0.98
2022-09-18T13:40:40.011Z,1.00
2022-09-18T13:43:51.801Z,1.00
2022-09-18T13:46:37.868Z,0.93
2022-09-18T13:49:16.587Z,0.73
2022-09-18T13:51:43.401Z,1.25
2022-09-18T13:54:25.868Z,0.95
2022-09-18T13:57:09.474Z,1.00
2022-09-18T13:59:58.380Z,1.02
2022-09-18T14:02:31.023Z,1.05
2022-09-18T14:04:57.898Z,0.93
2022-09-18T14:07:24.609Z,0.95
2022-09-18T14:10:05.840Z,0.80
2022-09-18T14:12:34.352Z,1.00
2022-09-18T14:15:24.627Z,0.90
2022-09-18T14:18:17.077Z,0.95
2022-09-18T14:20:54.974Z,0.85
2022-09-18T14:23:46.014Z,0.73
2022-09-18T14:26:31.480Z,1.00
2022-09-18T14:28:59.609Z,0.88
2022-09-18T14:31:36.302Z,0.80
2022-09-18T14:34:12.613Z,0.98
2022-09-18T14:36:48.770Z,0.70
2022-09-18T14:39:22.816Z,0.90
2022-09-18T14:41:50.744Z,0.80
2022-09-18T14:44:17.616Z,0.80
2022-09-18T14:46:59.465Z,0.90
2022-09-18T14:49:41.539Z,0.73
2022-09-18T14:52:26.060Z,0.90
2022-09-18T14:54:57.565Z,1.00
2022-09-18T14:57:35.513Z,0.50
2022-09-18T15:00:03.990Z,1.00
2022-09-18T15:02:34.147Z,0.93
2022-09-18T15:05:03.162Z,0.77
2022-09-18T15:07:30.112Z,0.70
2022-09-18T15:10:01.307Z,0.88
2022-09-18T15:12:30.596Z,0.70
2022-09-18T15:15:00.157Z,0.80
2022-09-18T15:17:28.554Z,0.77
2022-09-18T15:20:00.409Z,0.88
2022-09-18T15:22:31.189Z,0.65
2022-09-18T15:25:00.881Z,1.00
2022-09-18T15:27:28.651Z,0.90
2022-09-18T15:30:09.834Z,0.80
2022-09-18T15:32:39.645Z,0.73
2022-09-18T15:35:08.721Z,0.93
2022-09-18T15:37:38.180Z,0.90
2022-09-18T15:40:20.115Z,0.88
2022-09-18T15:42:59.125Z,0.80
2022-09-18T15:45:28.672Z,0.70
2022-09-18T15:48:00.374Z,0.68
2022-09-18T15:50:36.160Z,0.60
2022-09-18T15:53:20.063Z,1.10
2022-09-18T15:55:59.168Z,0.88
2022-09-18T15:58:45.011Z,0.80
2022-09-18T16:01:17.958Z,0.70
2022-09-18T16:03:45.079Z,1.25
2022-09-18T16:06:26.066Z,0.85
2022-09-18T16:08:54.937Z,0.47
2022-09-18T16:11:41.457Z,0.60
2022-09-18T16:14:37.153Z,1.10
2022-09-18T16:17:32.815Z,0.90
2022-09-18T16:20:21.780Z,1.15
2022-09-18T16:22:50.169Z,0.80
2022-09-18T16:25:21.598Z,0.75
2022-09-18T16:27:49.733Z,0.60
2022-09-18T16:30:16.609Z,0.80
2022-09-18T16:32:43.275Z,0.90
2022-09-18T16:35:13.858Z,0.73
2022-09-18T16:37:41.586Z,0.65
2022-09-18T16:40:24.198Z,0.82
2022-09-18T16:45:26.974Z,0.80
2022-09-18T16:47:58.749Z,0.90
2022-09-18T16:50:27.167Z,0.88
2022-09-18T16:52:54.834Z,0.77
2022-09-18T16:55:23.648Z,0.60
2022-09-18T16:57:51.980Z,0.75
2022-09-18T17:00:19.045Z,1.00
2022-09-18T17:02:45.813Z,0.70
2022-09-18T17:05:12.928Z,0.90
2022-09-18T17:07:42.545Z,1.00
2022-09-18T17:10:12.226Z,0.70
2022-09-18T17:12:39.978Z,0.73
2022-09-18T17:15:08.120Z,0.77
2022-09-18T17:17:35.307Z,0.90
2022-09-18T17:20:03.205Z,2.00
2022-09-18T17:22:31.222Z,1.85
2022-09-18T17:24:57.935Z,0.77
2022-09-18T17:27:25.850Z,1.20
2022-09-18T17:29:52.611Z,0.82
2022-09-18T17:32:19.594Z,0.88
2022-09-18T17:34:46.670Z,0.90
2022-09-18T17:37:13.637Z,1.10
2022-09-18T17:39:40.741Z,1.90
2022-09-18T17:42:07.605Z,1.17
2022-09-18T17:44:35.318Z,1.17
2022-09-18T17:47:02.137Z,1.00
2022-09-18T17:49:32.405Z,0.80
2022-09-18T17:51:59.456Z,1.40
2022-09-18T17:54:27.651Z,1.27
2022-09-18T17:56:55.696Z,1.27
2022-09-18T17:59:22.890Z,1.00
2022-09-18T18:01:49.709Z,1.08
2022-09-18T18:04:16.512Z,1.00
2022-09-18T18:06:43.397Z,0.90
2022-09-18T18:09:10.283Z,0.95
2022-09-18T18:11:37.623Z,1.00
2022-09-18T18:14:05.331Z,0.75
2022-09-18T18:16:34.382Z,1.27
2022-09-18T18:19:03.517Z,1.48
2022-09-18T18:21:32.756Z,1.33
2022-09-18T18:24:08.958Z,1.15
2022-09-18T18:26:39.451Z,1.10
2022-09-18T18:29:11.466Z,1.30
2022-09-18T18:31:40.538Z,1.30
2022-09-18T18:34:10.549Z,1.10
2022-09-18T18:36:39.042Z,1.00
2022-09-18T18:39:09.745Z,1.38
2022-09-18T18:41:37.230Z,1.05
2022-09-18T18:44:07.825Z,1.02
2022-09-18T18:46:36.590Z,0.90
2022-09-18T18:49:11.141Z,1.25
2022-09-18T18:51:47.947Z,1.88
2022-09-18T18:54:16.804Z,1.20
2022-09-18T18:56:43.809Z,0.98
2022-09-18T18:59:12.906Z,1.00
2022-09-18T19:01:40.183Z,0.80
2022-09-18T19:04:09.366Z,0.85
2022-09-18T19:06:43.927Z,1.17
2022-09-18T19:09:20.654Z,0.90
2022-09-18T19:11:49.292Z,0.88
2022-09-18T19:14:17.354Z,1.00
2022-09-18T19:16:45.023Z,0.80
2022-09-18T19:19:13.052Z,1.05
2022-09-18T19:21:40.130Z,0.90
2022-09-18T19:24:09.067Z,0.70
2022-09-18T19:26:36.884Z,0.77
2022-09-18T19:29:06.901Z,0.70
2022-09-18T19:31:35.271Z,0.80
2022-09-18T19:34:02.160Z,0.88
2022-09-18T19:36:30.326Z,1.10
2022-09-18T19:38:58.938Z,1.00
2022-09-18T19:41:47.734Z,1.08
2022-09-18T19:44:40.572Z,0.90
2022-09-18T19:47:28.653Z,0.73
2022-09-18T19:49:57.016Z,0.70
2022-09-18T19:52:25.458Z,0.93
2022-09-18T19:54:53.424Z,0.70
2022-09-18T19:57:21.169Z,0.88
2022-09-18T19:59:47.903Z,0.88
2022-09-18T20:02:17.315Z,0.90
2022-09-18T20:04:44.218Z,1.00
2022-09-18T20:07:11.195Z,0.73
2022-09-18T20:09:38.226Z,0.95
2022-09-18T20:12:05.025Z,1.05
2022-09-18T20:14:31.669Z,0.90
2022-09-18T20:16:58.281Z,1.00
2022-09-18T20:19:26.001Z,1.20
2022-09-18T20:21:53.141Z,1.00
2022-09-18T20:24:20.316Z,0.98
2022-09-18T20:26:47.067Z,0.95
2022-09-18T20:29:16.181Z,1.23
2022-09-18T20:31:43.281Z,1.00
2022-09-18T20:34:11.068Z,0.90
2022-09-18T20:36:38.133Z,1.70
2022-09-18T20:39:05.405Z,1.08
2022-09-18T20:41:32.425Z,1.00
2022-09-18T20:44:01.104Z,1.10
2022-09-18T20:46:27.906Z,1.10
2022-09-18T20:48:58.051Z,1.10
2022-09-18T20:51:28.061Z,1.30
2022-09-18T20:53:57.326Z,1.20
2022-09-18T20:56:33.023Z,0.98
2022-09-18T20:59:04.724Z,1.20
2022-09-18T21:01:34.910Z,1.60
2022-09-18T21:04:02.579Z,1.55
2022-09-18T21:06:34.300Z,1.20
2022-09-18T21:09:08.314Z,1.00
2022-09-18T21:11:41.191Z,1.47
2022-09-18T21:14:10.157Z,1.35
2022-09-18T21:16:42.957Z,1.27
2022-09-18T21:19:15.741Z,1.15
2022-09-18T21:21:42.401Z,1.13
2022-09-18T21:24:10.095Z,1.50
2022-09-18T21:26:42.088Z,1.10
2022-09-18T21:29:22.682Z,1.48
2022-09-18T21:31:51.788Z,1.33
2022-09-18T21:34:26.945Z,1.20
2022-09-18T21:37:01.778Z,1.00
2022-09-18T21:39:29.550Z,1.17
2022-09-18T21:41:57.802Z,1.15
2022-09-18T21:44:29.472Z,1.17
2022-09-18T21:46:59.256Z,1.00
2022-09-18T21:49:26.210Z,0.90
2022-09-18T21:51:57.775Z,1.40
2022-09-18T21:54:25.007Z,0.98
2022-09-18T21:56:51.929Z,1.13
2022-09-18T21:59:19.963Z,1.10
2022-09-18T22:01:48.858Z,1.08
2022-09-18T22:04:17.338Z,1.00
2022-09-18T22:06:46.049Z,1.13
2022-09-18T22:09:22.132Z,1.17
2022-09-18T22:11:49.498Z,1.02
2022-09-18T22:14:22.730Z,1.10
2022-09-18T22:16:49.791Z,1.25
2022-09-18T22:19:17.327Z,1.25
2022-09-18T22:21:46.927Z,1.17
2022-09-18T22:24:21.897Z,1.10
2022-09-18T22:26:50.645Z,1.13
2022-09-18T22:29:26.107Z,1.00
2022-09-18T22:31:53.325Z,1.20
2022-09-18T22:34:22.024Z,1.20
2022-09-18T22:36:49.333Z,1.10
2022-09-18T22:39:17.615Z,1.23
2022-09-18T22:41:44.891Z,1.40
2022-09-18T22:44:12.380Z,1.40
2022-09-18T22:46:41.267Z,1.55
2022-09-18T22:49:11.202Z,1.20
2022-09-18T22:51:39.349Z,1.70
2022-09-18T22:54:09.217Z,2.20
2022-09-18T22:56:41.217Z,1.40
2022-09-18T22:59:08.270Z,1.48
2022-09-18T23:01:39.236Z,1.90
2022-09-18T23:04:05.973Z,0.90
2022-09-18T23:06:33.551Z,2.47
2022-09-18T23:09:01.081Z,1.30
2022-09-18T23:11:30.421Z,0.98
2022-09-18T23:14:08.912Z,0.70
2022-09-18T23:16:36.610Z,0.70
2022-09-18T23:19:06.214Z,0.55
2022-09-18T23:21:34.433Z,0.80
2022-09-18T23:24:07.115Z,0.45
2022-09-18T23:26:38.049Z,0.57
2022-09-18T23:29:10.617Z,0.80
2022-09-18T23:31:40.449Z,0.70
2022-09-18T23:34:12.601Z,0.60
2022-09-18T23:36:42.351Z,1.00
2022-09-18T23:39:14.147Z,0.50
2022-09-18T23:41:41.297Z,0.70
2022-09-18T23:44:11.033Z,0.50
2022-09-18T23:46:38.765Z,0.60
2022-09-18T23:49:08.371Z,0.60
2022-09-18T23:51:37.731Z,0.60
2022-09-18T23:54:07.002Z,0.57
2022-09-18T23:56:36.934Z,0.57
2022-09-18T23:59:05.858Z,0.60
